<?xml version="1.0" encoding="UTF-8" standalone="no" ?>
<gpx xmlns="http://www.topografix.com/GPX/1/1" xmlns:xsi="http://www.w3.org/2001/XMLSchema-instance" xsi:schemaLocation="http://www.topografix.com/GPX/1/1 http://www.topografix.com/GPX/1/1/gpx.xsd" version="1.1" creator="VisuGPX - https://www.visugpx.com">
  <metadata>
    <name>9640342-Bézu la Forêt - Montroty</name>
    <desc><![CDATA[projet de randonnée au départ de bézu la forêt]]></desc>
  </metadata>
  <trk>
    <name><![CDATA[9640342-Bézu la Forêt - Montroty]]></name>
    <trkseg>
      <trkpt lat="49.40802" lon="1.62903">
        <ele>120</ele>
        <time>2020-01-07T17:24:22Z</time>
      </trkpt>
      <trkpt lat="49.40803" lon="1.62928">
        <ele>119</ele>
        <time>2020-01-07T17:24:44Z</time>
      </trkpt>
      <trkpt lat="49.40794" lon="1.62955">
        <ele>118</ele>
        <time>2020-01-07T17:25:10Z</time>
      </trkpt>
      <trkpt lat="49.40774" lon="1.62983">
        <ele>117</ele>
        <time>2020-01-07T17:25:46Z</time>
      </trkpt>
      <trkpt lat="49.40743" lon="1.62996">
        <ele>117</ele>
        <time>2020-01-07T17:26:29Z</time>
      </trkpt>
      <trkpt lat="49.40708" lon="1.63024">
        <ele>117</ele>
        <time>2020-01-07T17:27:22Z</time>
      </trkpt>
      <trkpt lat="49.40694" lon="1.63047">
        <ele>116</ele>
        <time>2020-01-07T17:27:49Z</time>
      </trkpt>
      <trkpt lat="49.40687" lon="1.6308">
        <ele>114</ele>
        <time>2020-01-07T17:28:19Z</time>
      </trkpt>
      <trkpt lat="49.40705" lon="1.63112">
        <ele>114</ele>
        <time>2020-01-07T17:28:56Z</time>
      </trkpt>
      <trkpt lat="49.40709" lon="1.63151">
        <ele>114</ele>
        <time>2020-01-07T17:29:30Z</time>
      </trkpt>
      <trkpt lat="49.40709" lon="1.63194">
        <ele>115</ele>
        <time>2020-01-07T17:30:08Z</time>
      </trkpt>
      <trkpt lat="49.40711" lon="1.63235">
        <ele>117</ele>
        <time>2020-01-07T17:30:43Z</time>
      </trkpt>
      <trkpt lat="49.40711" lon="1.63285">
        <ele>119</ele>
        <time>2020-01-07T17:31:27Z</time>
      </trkpt>
      <trkpt lat="49.40723" lon="1.6333">
        <ele>123</ele>
        <time>2020-01-07T17:32:09Z</time>
      </trkpt>
      <trkpt lat="49.40749" lon="1.6338">
        <ele>125</ele>
        <time>2020-01-07T17:33:04Z</time>
      </trkpt>
      <trkpt lat="49.40782" lon="1.63432">
        <ele>132</ele>
        <time>2020-01-07T17:34:08Z</time>
      </trkpt>
      <trkpt lat="49.40825" lon="1.63465">
        <ele>139</ele>
        <time>2020-01-07T17:35:12Z</time>
      </trkpt>
      <trkpt lat="49.40881" lon="1.63514">
        <ele>148</ele>
        <time>2020-01-07T17:36:38Z</time>
      </trkpt>
      <trkpt lat="49.40907" lon="1.63529">
        <ele>152</ele>
        <time>2020-01-07T17:37:15Z</time>
      </trkpt>
      <trkpt lat="49.40882" lon="1.63556">
        <ele>147</ele>
        <time>2020-01-07T17:37:56Z</time>
      </trkpt>
      <trkpt lat="49.40851" lon="1.6359">
        <ele>142</ele>
        <time>2020-01-07T17:38:46Z</time>
      </trkpt>
      <trkpt lat="49.40831" lon="1.63629">
        <ele>141</ele>
        <time>2020-01-07T17:39:29Z</time>
      </trkpt>
      <trkpt lat="49.4083" lon="1.63666">
        <ele>143</ele>
        <time>2020-01-07T17:40:02Z</time>
      </trkpt>
      <trkpt lat="49.40823" lon="1.637">
        <ele>142</ele>
        <time>2020-01-07T17:40:33Z</time>
      </trkpt>
      <trkpt lat="49.40808" lon="1.6374">
        <ele>140</ele>
        <time>2020-01-07T17:41:13Z</time>
      </trkpt>
      <trkpt lat="49.408" lon="1.63788">
        <ele>138</ele>
        <time>2020-01-07T17:41:56Z</time>
      </trkpt>
      <trkpt lat="49.40798" lon="1.6384">
        <ele>138</ele>
        <time>2020-01-07T17:42:41Z</time>
      </trkpt>
      <trkpt lat="49.40792" lon="1.63878">
        <ele>141</ele>
        <time>2020-01-07T17:43:15Z</time>
      </trkpt>
      <trkpt lat="49.4077" lon="1.63899">
        <ele>140</ele>
        <time>2020-01-07T17:43:49Z</time>
      </trkpt>
      <trkpt lat="49.40735" lon="1.63936">
        <ele>139</ele>
        <time>2020-01-07T17:44:46Z</time>
      </trkpt>
      <trkpt lat="49.40712" lon="1.63987">
        <ele>139</ele>
        <time>2020-01-07T17:45:40Z</time>
      </trkpt>
      <trkpt lat="49.40692" lon="1.64045">
        <ele>141</ele>
        <time>2020-01-07T17:46:37Z</time>
      </trkpt>
      <trkpt lat="49.40669" lon="1.64115">
        <ele>145</ele>
        <time>2020-01-07T17:47:45Z</time>
      </trkpt>
      <trkpt lat="49.40646" lon="1.64191">
        <ele>145</ele>
        <time>2020-01-07T17:48:58Z</time>
      </trkpt>
      <trkpt lat="49.40623" lon="1.64269">
        <ele>143</ele>
        <time>2020-01-07T17:50:12Z</time>
      </trkpt>
      <trkpt lat="49.40608" lon="1.64323">
        <ele>142</ele>
        <time>2020-01-07T17:51:03Z</time>
      </trkpt>
      <trkpt lat="49.40597" lon="1.64376">
        <ele>144</ele>
        <time>2020-01-07T17:51:52Z</time>
      </trkpt>
      <trkpt lat="49.40585" lon="1.64411">
        <ele>147</ele>
        <time>2020-01-07T17:52:26Z</time>
      </trkpt>
      <trkpt lat="49.40563" lon="1.64459">
        <ele>147</ele>
        <time>2020-01-07T17:53:17Z</time>
      </trkpt>
      <trkpt lat="49.40535" lon="1.64499">
        <ele>147</ele>
        <time>2020-01-07T17:54:08Z</time>
      </trkpt>
      <trkpt lat="49.40501" lon="1.64526">
        <ele>146</ele>
        <time>2020-01-07T17:54:59Z</time>
      </trkpt>
      <trkpt lat="49.40465" lon="1.6455">
        <ele>141</ele>
        <time>2020-01-07T17:55:51Z</time>
      </trkpt>
      <trkpt lat="49.4044" lon="1.6459">
        <ele>140</ele>
        <time>2020-01-07T17:56:39Z</time>
      </trkpt>
      <trkpt lat="49.40419" lon="1.64631">
        <ele>141</ele>
        <time>2020-01-07T17:57:25Z</time>
      </trkpt>
      <trkpt lat="49.40395" lon="1.64664">
        <ele>140</ele>
        <time>2020-01-07T17:58:08Z</time>
      </trkpt>
      <trkpt lat="49.4037" lon="1.64703">
        <ele>137</ele>
        <time>2020-01-07T17:58:55Z</time>
      </trkpt>
      <trkpt lat="49.40344" lon="1.64758">
        <ele>136</ele>
        <time>2020-01-07T17:59:54Z</time>
      </trkpt>
      <trkpt lat="49.40334" lon="1.64819">
        <ele>137</ele>
        <time>2020-01-07T18:00:49Z</time>
      </trkpt>
      <trkpt lat="49.40322" lon="1.64892">
        <ele>135</ele>
        <time>2020-01-07T18:01:54Z</time>
      </trkpt>
      <trkpt lat="49.40315" lon="1.64973">
        <ele>131</ele>
        <time>2020-01-07T18:03:05Z</time>
      </trkpt>
      <trkpt lat="49.4031" lon="1.65055">
        <ele>121</ele>
        <time>2020-01-07T18:04:17Z</time>
      </trkpt>
      <trkpt lat="49.40304" lon="1.65121">
        <ele>118</ele>
        <time>2020-01-07T18:05:15Z</time>
      </trkpt>
      <trkpt lat="49.4027" lon="1.65136">
        <ele>118</ele>
        <time>2020-01-07T18:06:02Z</time>
      </trkpt>
      <trkpt lat="49.40225" lon="1.65145">
        <ele>118</ele>
        <time>2020-01-07T18:07:02Z</time>
      </trkpt>
      <trkpt lat="49.40181" lon="1.65139">
        <ele>117</ele>
        <time>2020-01-07T18:08:01Z</time>
      </trkpt>
      <trkpt lat="49.40146" lon="1.6514">
        <ele>116</ele>
        <time>2020-01-07T18:08:48Z</time>
      </trkpt>
      <trkpt lat="49.40121" lon="1.65142">
        <ele>115</ele>
        <time>2020-01-07T18:09:22Z</time>
      </trkpt>
      <trkpt lat="49.40106" lon="1.65177">
        <ele>118</ele>
        <time>2020-01-07T18:09:58Z</time>
      </trkpt>
      <trkpt lat="49.40097" lon="1.65221">
        <ele>121</ele>
        <time>2020-01-07T18:10:38Z</time>
      </trkpt>
      <trkpt lat="49.40111" lon="1.65259">
        <ele>125</ele>
        <time>2020-01-07T18:11:16Z</time>
      </trkpt>
      <trkpt lat="49.40096" lon="1.65298">
        <ele>126</ele>
        <time>2020-01-07T18:11:55Z</time>
      </trkpt>
      <trkpt lat="49.4009" lon="1.65327">
        <ele>128</ele>
        <time>2020-01-07T18:12:22Z</time>
      </trkpt>
      <trkpt lat="49.40111" lon="1.65354">
        <ele>130</ele>
        <time>2020-01-07T18:12:58Z</time>
      </trkpt>
      <trkpt lat="49.40089" lon="1.65363">
        <ele>129</ele>
        <time>2020-01-07T18:13:29Z</time>
      </trkpt>
      <trkpt lat="49.40076" lon="1.65397">
        <ele>129</ele>
        <time>2020-01-07T18:14:03Z</time>
      </trkpt>
      <trkpt lat="49.4008" lon="1.65439">
        <ele>133</ele>
        <time>2020-01-07T18:14:40Z</time>
      </trkpt>
      <trkpt lat="49.4009" lon="1.65468">
        <ele>136</ele>
        <time>2020-01-07T18:15:08Z</time>
      </trkpt>
      <trkpt lat="49.40073" lon="1.65491">
        <ele>137</ele>
        <time>2020-01-07T18:15:38Z</time>
      </trkpt>
      <trkpt lat="49.40042" lon="1.65518">
        <ele>135</ele>
        <time>2020-01-07T18:16:26Z</time>
      </trkpt>
      <trkpt lat="49.40016" lon="1.65555">
        <ele>137</ele>
        <time>2020-01-07T18:17:13Z</time>
      </trkpt>
      <trkpt lat="49.3999" lon="1.65605">
        <ele>139</ele>
        <time>2020-01-07T18:18:09Z</time>
      </trkpt>
      <trkpt lat="49.39967" lon="1.65644">
        <ele>138</ele>
        <time>2020-01-07T18:18:55Z</time>
      </trkpt>
      <trkpt lat="49.39955" lon="1.6567">
        <ele>137</ele>
        <time>2020-01-07T18:19:22Z</time>
      </trkpt>
      <trkpt lat="49.39955" lon="1.6572">
        <ele>142</ele>
        <time>2020-01-07T18:20:06Z</time>
      </trkpt>
      <trkpt lat="49.39954" lon="1.65778">
        <ele>144</ele>
        <time>2020-01-07T18:20:56Z</time>
      </trkpt>
      <trkpt lat="49.39955" lon="1.65831">
        <ele>145</ele>
        <time>2020-01-07T18:21:42Z</time>
      </trkpt>
      <trkpt lat="49.39956" lon="1.65879">
        <ele>144</ele>
        <time>2020-01-07T18:22:24Z</time>
      </trkpt>
      <trkpt lat="49.39956" lon="1.65949">
        <ele>142</ele>
        <time>2020-01-07T18:23:25Z</time>
      </trkpt>
      <trkpt lat="49.39955" lon="1.65981">
        <ele>141</ele>
        <time>2020-01-07T18:23:52Z</time>
      </trkpt>
      <trkpt lat="49.39988" lon="1.66014">
        <ele>146</ele>
        <time>2020-01-07T18:24:45Z</time>
      </trkpt>
      <trkpt lat="49.40018" lon="1.66057">
        <ele>149</ele>
        <time>2020-01-07T18:25:40Z</time>
      </trkpt>
      <trkpt lat="49.40039" lon="1.66093">
        <ele>151</ele>
        <time>2020-01-07T18:26:22Z</time>
      </trkpt>
      <trkpt lat="49.40063" lon="1.6613">
        <ele>153</ele>
        <time>2020-01-07T18:27:07Z</time>
      </trkpt>
      <trkpt lat="49.40088" lon="1.66177">
        <ele>153</ele>
        <time>2020-01-07T18:28:00Z</time>
      </trkpt>
      <trkpt lat="49.40124" lon="1.66221">
        <ele>148</ele>
        <time>2020-01-07T18:29:01Z</time>
      </trkpt>
      <trkpt lat="49.4016" lon="1.66254">
        <ele>147</ele>
        <time>2020-01-07T18:29:57Z</time>
      </trkpt>
      <trkpt lat="49.40195" lon="1.66292">
        <ele>145</ele>
        <time>2020-01-07T18:30:54Z</time>
      </trkpt>
      <trkpt lat="49.40239" lon="1.66339">
        <ele>144</ele>
        <time>2020-01-07T18:32:06Z</time>
      </trkpt>
      <trkpt lat="49.40297" lon="1.66392">
        <ele>143</ele>
        <time>2020-01-07T18:33:36Z</time>
      </trkpt>
      <trkpt lat="49.40338" lon="1.66451">
        <ele>144</ele>
        <time>2020-01-07T18:34:51Z</time>
      </trkpt>
      <trkpt lat="49.40378" lon="1.66518">
        <ele>142</ele>
        <time>2020-01-07T18:36:10Z</time>
      </trkpt>
      <trkpt lat="49.40429" lon="1.66577">
        <ele>143</ele>
        <time>2020-01-07T18:37:35Z</time>
      </trkpt>
      <trkpt lat="49.40495" lon="1.66632">
        <ele>145</ele>
        <time>2020-01-07T18:39:15Z</time>
      </trkpt>
      <trkpt lat="49.40569" lon="1.66664">
        <ele>147</ele>
        <time>2020-01-07T18:40:58Z</time>
      </trkpt>
      <trkpt lat="49.4062" lon="1.667">
        <ele>146</ele>
        <time>2020-01-07T18:42:13Z</time>
      </trkpt>
      <trkpt lat="49.40669" lon="1.66743">
        <ele>146</ele>
        <time>2020-01-07T18:43:28Z</time>
      </trkpt>
      <trkpt lat="49.40724" lon="1.66796">
        <ele>148</ele>
        <time>2020-01-07T18:44:55Z</time>
      </trkpt>
      <trkpt lat="49.40739" lon="1.66844">
        <ele>147</ele>
        <time>2020-01-07T18:45:41Z</time>
      </trkpt>
      <trkpt lat="49.40749" lon="1.66893">
        <ele>146</ele>
        <time>2020-01-07T18:46:25Z</time>
      </trkpt>
      <trkpt lat="49.40764" lon="1.66958">
        <ele>145</ele>
        <time>2020-01-07T18:47:25Z</time>
      </trkpt>
      <trkpt lat="49.4076" lon="1.67001">
        <ele>145</ele>
        <time>2020-01-07T18:48:03Z</time>
      </trkpt>
      <trkpt lat="49.40724" lon="1.67011">
        <ele>147</ele>
        <time>2020-01-07T18:48:52Z</time>
      </trkpt>
      <trkpt lat="49.40685" lon="1.67016">
        <ele>148</ele>
        <time>2020-01-07T18:49:44Z</time>
      </trkpt>
      <trkpt lat="49.40662" lon="1.67031">
        <ele>150</ele>
        <time>2020-01-07T18:50:17Z</time>
      </trkpt>
      <trkpt lat="49.4065" lon="1.67079">
        <ele>152</ele>
        <time>2020-01-07T18:51:02Z</time>
      </trkpt>
      <trkpt lat="49.40634" lon="1.67161">
        <ele>152</ele>
        <time>2020-01-07T18:52:16Z</time>
      </trkpt>
      <trkpt lat="49.40614" lon="1.67248">
        <ele>151</ele>
        <time>2020-01-07T18:53:36Z</time>
      </trkpt>
      <trkpt lat="49.4059" lon="1.67328">
        <ele>157</ele>
        <time>2020-01-07T18:54:53Z</time>
      </trkpt>
      <trkpt lat="49.40577" lon="1.67401">
        <ele>163</ele>
        <time>2020-01-07T18:55:59Z</time>
      </trkpt>
      <trkpt lat="49.40569" lon="1.67471">
        <ele>164</ele>
        <time>2020-01-07T18:57:00Z</time>
      </trkpt>
      <trkpt lat="49.40564" lon="1.67513">
        <ele>165</ele>
        <time>2020-01-07T18:57:37Z</time>
      </trkpt>
      <trkpt lat="49.40561" lon="1.67553">
        <ele>165</ele>
        <time>2020-01-07T18:58:12Z</time>
      </trkpt>
      <trkpt lat="49.40562" lon="1.6762">
        <ele>165</ele>
        <time>2020-01-07T18:59:11Z</time>
      </trkpt>
      <trkpt lat="49.40569" lon="1.67685">
        <ele>163</ele>
        <time>2020-01-07T19:00:08Z</time>
      </trkpt>
      <trkpt lat="49.4058" lon="1.67746">
        <ele>163</ele>
        <time>2020-01-07T19:01:03Z</time>
      </trkpt>
      <trkpt lat="49.40591" lon="1.67803">
        <ele>165</ele>
        <time>2020-01-07T19:01:54Z</time>
      </trkpt>
      <trkpt lat="49.40596" lon="1.67843">
        <ele>167</ele>
        <time>2020-01-07T19:02:30Z</time>
      </trkpt>
      <trkpt lat="49.40591" lon="1.67885">
        <ele>168</ele>
        <time>2020-01-07T19:03:07Z</time>
      </trkpt>
      <trkpt lat="49.40607" lon="1.67931">
        <ele>169</ele>
        <time>2020-01-07T19:03:52Z</time>
      </trkpt>
      <trkpt lat="49.4062" lon="1.67999">
        <ele>169</ele>
        <time>2020-01-07T19:04:54Z</time>
      </trkpt>
      <trkpt lat="49.40635" lon="1.68088">
        <ele>175</ele>
        <time>2020-01-07T19:06:13Z</time>
      </trkpt>
      <trkpt lat="49.40653" lon="1.6818">
        <ele>179</ele>
        <time>2020-01-07T19:07:37Z</time>
      </trkpt>
      <trkpt lat="49.40675" lon="1.68263">
        <ele>178</ele>
        <time>2020-01-07T19:08:55Z</time>
      </trkpt>
      <trkpt lat="49.40695" lon="1.6833">
        <ele>178</ele>
        <time>2020-01-07T19:09:59Z</time>
      </trkpt>
      <trkpt lat="49.40724" lon="1.68374">
        <ele>178</ele>
        <time>2020-01-07T19:10:53Z</time>
      </trkpt>
      <trkpt lat="49.40747" lon="1.68283">
        <ele>178</ele>
        <time>2020-01-07T19:12:18Z</time>
      </trkpt>
      <trkpt lat="49.4079" lon="1.68113">
        <ele>178</ele>
        <time>2020-01-07T19:14:56Z</time>
      </trkpt>
      <trkpt lat="49.40809" lon="1.68011">
        <ele>176</ele>
        <time>2020-01-07T19:16:28Z</time>
      </trkpt>
      <trkpt lat="49.40836" lon="1.67905">
        <ele>175</ele>
        <time>2020-01-07T19:18:07Z</time>
      </trkpt>
      <trkpt lat="49.40859" lon="1.67815">
        <ele>174</ele>
        <time>2020-01-07T19:19:31Z</time>
      </trkpt>
      <trkpt lat="49.40904" lon="1.67791">
        <ele>177</ele>
        <time>2020-01-07T19:20:35Z</time>
      </trkpt>
      <trkpt lat="49.40954" lon="1.67761">
        <ele>180</ele>
        <time>2020-01-07T19:21:46Z</time>
      </trkpt>
      <trkpt lat="49.4101" lon="1.67729">
        <ele>182</ele>
        <time>2020-01-07T19:23:06Z</time>
      </trkpt>
      <trkpt lat="49.4108" lon="1.67696">
        <ele>182</ele>
        <time>2020-01-07T19:24:44Z</time>
      </trkpt>
      <trkpt lat="49.41164" lon="1.67648">
        <ele>179</ele>
        <time>2020-01-07T19:26:43Z</time>
      </trkpt>
      <trkpt lat="49.41241" lon="1.67615">
        <ele>177</ele>
        <time>2020-01-07T19:28:30Z</time>
      </trkpt>
      <trkpt lat="49.41325" lon="1.67565">
        <ele>171</ele>
        <time>2020-01-07T19:30:30Z</time>
      </trkpt>
      <trkpt lat="49.41399" lon="1.6752">
        <ele>171</ele>
        <time>2020-01-07T19:32:16Z</time>
      </trkpt>
      <trkpt lat="49.41451" lon="1.67432">
        <ele>170</ele>
        <time>2020-01-07T19:34:00Z</time>
      </trkpt>
      <trkpt lat="49.41514" lon="1.67316">
        <ele>172</ele>
        <time>2020-01-07T19:36:11Z</time>
      </trkpt>
      <trkpt lat="49.41575" lon="1.67195">
        <ele>173</ele>
        <time>2020-01-07T19:38:24Z</time>
      </trkpt>
      <trkpt lat="49.41621" lon="1.67122">
        <ele>174</ele>
        <time>2020-01-07T19:39:52Z</time>
      </trkpt>
      <trkpt lat="49.41667" lon="1.67034">
        <ele>178</ele>
        <time>2020-01-07T19:41:30Z</time>
      </trkpt>
      <trkpt lat="49.41698" lon="1.66981">
        <ele>181</ele>
        <time>2020-01-07T19:42:32Z</time>
      </trkpt>
      <trkpt lat="49.41707" lon="1.67005">
        <ele>181</ele>
        <time>2020-01-07T19:42:56Z</time>
      </trkpt>
      <trkpt lat="49.4171" lon="1.67055">
        <ele>180</ele>
        <time>2020-01-07T19:43:40Z</time>
      </trkpt>
      <trkpt lat="49.41708" lon="1.6711">
        <ele>178</ele>
        <time>2020-01-07T19:44:27Z</time>
      </trkpt>
      <trkpt lat="49.41761" lon="1.67125">
        <ele>181</ele>
        <time>2020-01-07T19:45:39Z</time>
      </trkpt>
      <trkpt lat="49.4182" lon="1.67143">
        <ele>185</ele>
        <time>2020-01-07T19:47:00Z</time>
      </trkpt>
      <trkpt lat="49.41889" lon="1.67152">
        <ele>189</ele>
        <time>2020-01-07T19:48:32Z</time>
      </trkpt>
      <trkpt lat="49.41965" lon="1.67169">
        <ele>190</ele>
        <time>2020-01-07T19:50:14Z</time>
      </trkpt>
      <trkpt lat="49.42045" lon="1.67187">
        <ele>193</ele>
        <time>2020-01-07T19:52:02Z</time>
      </trkpt>
      <trkpt lat="49.42088" lon="1.67201">
        <ele>197</ele>
        <time>2020-01-07T19:53:01Z</time>
      </trkpt>
      <trkpt lat="49.42092" lon="1.67149">
        <ele>198</ele>
        <time>2020-01-07T19:53:46Z</time>
      </trkpt>
      <trkpt lat="49.42103" lon="1.67061">
        <ele>198</ele>
        <time>2020-01-07T19:55:04Z</time>
      </trkpt>
      <trkpt lat="49.42108" lon="1.66978">
        <ele>195</ele>
        <time>2020-01-07T19:56:17Z</time>
      </trkpt>
      <trkpt lat="49.42114" lon="1.66951">
        <ele>195</ele>
        <time>2020-01-07T19:56:41Z</time>
      </trkpt>
      <trkpt lat="49.42156" lon="1.6696">
        <ele>197</ele>
        <time>2020-01-07T19:57:38Z</time>
      </trkpt>
      <trkpt lat="49.4222" lon="1.66976">
        <ele>200</ele>
        <time>2020-01-07T19:59:04Z</time>
      </trkpt>
      <trkpt lat="49.42298" lon="1.66993">
        <ele>202</ele>
        <time>2020-01-07T20:00:50Z</time>
      </trkpt>
      <trkpt lat="49.42376" lon="1.67005">
        <ele>203</ele>
        <time>2020-01-07T20:02:34Z</time>
      </trkpt>
      <trkpt lat="49.42459" lon="1.6702">
        <ele>203</ele>
        <time>2020-01-07T20:04:26Z</time>
      </trkpt>
      <trkpt lat="49.42521" lon="1.67039">
        <ele>201</ele>
        <time>2020-01-07T20:05:50Z</time>
      </trkpt>
      <trkpt lat="49.42594" lon="1.67054">
        <ele>198</ele>
        <time>2020-01-07T20:07:28Z</time>
      </trkpt>
      <trkpt lat="49.42663" lon="1.67066">
        <ele>201</ele>
        <time>2020-01-07T20:09:01Z</time>
      </trkpt>
      <trkpt lat="49.42749" lon="1.67078">
        <ele>207</ele>
        <time>2020-01-07T20:10:56Z</time>
      </trkpt>
      <trkpt lat="49.42834" lon="1.67098">
        <ele>207</ele>
        <time>2020-01-07T20:12:51Z</time>
      </trkpt>
      <trkpt lat="49.42925" lon="1.67111">
        <ele>203</ele>
        <time>2020-01-07T20:14:53Z</time>
      </trkpt>
      <trkpt lat="49.42923" lon="1.67157">
        <ele>200</ele>
        <time>2020-01-07T20:15:33Z</time>
      </trkpt>
      <trkpt lat="49.42918" lon="1.67225">
        <ele>198</ele>
        <time>2020-01-07T20:16:32Z</time>
      </trkpt>
      <trkpt lat="49.42913" lon="1.67314">
        <ele>197</ele>
        <time>2020-01-07T20:17:50Z</time>
      </trkpt>
      <trkpt lat="49.42906" lon="1.67392">
        <ele>196</ele>
        <time>2020-01-07T20:18:58Z</time>
      </trkpt>
      <trkpt lat="49.42905" lon="1.6747">
        <ele>194</ele>
        <time>2020-01-07T20:20:06Z</time>
      </trkpt>
      <trkpt lat="49.42901" lon="1.67536">
        <ele>188</ele>
        <time>2020-01-07T20:21:03Z</time>
      </trkpt>
      <trkpt lat="49.429" lon="1.67577">
        <ele>181</ele>
        <time>2020-01-07T20:21:39Z</time>
      </trkpt>
      <trkpt lat="49.42932" lon="1.6756">
        <ele>179</ele>
        <time>2020-01-07T20:22:24Z</time>
      </trkpt>
      <trkpt lat="49.42972" lon="1.67534">
        <ele>176</ele>
        <time>2020-01-07T20:23:22Z</time>
      </trkpt>
      <trkpt lat="49.43006" lon="1.67535">
        <ele>170</ele>
        <time>2020-01-07T20:24:08Z</time>
      </trkpt>
      <trkpt lat="49.43012" lon="1.67562">
        <ele>165</ele>
        <time>2020-01-07T20:24:32Z</time>
      </trkpt>
      <trkpt lat="49.42993" lon="1.67596">
        <ele>163</ele>
        <time>2020-01-07T20:25:11Z</time>
      </trkpt>
      <trkpt lat="49.42967" lon="1.6765">
        <ele>159</ele>
        <time>2020-01-07T20:26:10Z</time>
      </trkpt>
      <trkpt lat="49.42988" lon="1.6764">
        <ele>158</ele>
        <time>2020-01-07T20:26:39Z</time>
      </trkpt>
      <trkpt lat="49.43029" lon="1.67582">
        <ele>160</ele>
        <time>2020-01-07T20:27:53Z</time>
      </trkpt>
      <trkpt lat="49.43069" lon="1.6752">
        <ele>162</ele>
        <time>2020-01-07T20:29:09Z</time>
      </trkpt>
      <trkpt lat="49.431" lon="1.67554">
        <ele>155</ele>
        <time>2020-01-07T20:30:00Z</time>
      </trkpt>
      <trkpt lat="49.43137" lon="1.67589">
        <ele>149</ele>
        <time>2020-01-07T20:30:58Z</time>
      </trkpt>
      <trkpt lat="49.43176" lon="1.67632">
        <ele>147</ele>
        <time>2020-01-07T20:32:02Z</time>
      </trkpt>
      <trkpt lat="49.43208" lon="1.67671">
        <ele>150</ele>
        <time>2020-01-07T20:32:56Z</time>
      </trkpt>
      <trkpt lat="49.43238" lon="1.67643">
        <ele>149</ele>
        <time>2020-01-07T20:33:43Z</time>
      </trkpt>
      <trkpt lat="49.43259" lon="1.67596">
        <ele>146</ele>
        <time>2020-01-07T20:34:33Z</time>
      </trkpt>
      <trkpt lat="49.43285" lon="1.67552">
        <ele>147</ele>
        <time>2020-01-07T20:35:24Z</time>
      </trkpt>
      <trkpt lat="49.43315" lon="1.67509">
        <ele>147</ele>
        <time>2020-01-07T20:36:19Z</time>
      </trkpt>
      <trkpt lat="49.43308" lon="1.67481">
        <ele>146</ele>
        <time>2020-01-07T20:36:45Z</time>
      </trkpt>
      <trkpt lat="49.43305" lon="1.67437">
        <ele>147</ele>
        <time>2020-01-07T20:37:23Z</time>
      </trkpt>
      <trkpt lat="49.43317" lon="1.67399">
        <ele>149</ele>
        <time>2020-01-07T20:38:00Z</time>
      </trkpt>
      <trkpt lat="49.43359" lon="1.67363">
        <ele>150</ele>
        <time>2020-01-07T20:39:04Z</time>
      </trkpt>
      <trkpt lat="49.43401" lon="1.67312">
        <ele>152</ele>
        <time>2020-01-07T20:40:16Z</time>
      </trkpt>
      <trkpt lat="49.43444" lon="1.67273">
        <ele>155</ele>
        <time>2020-01-07T20:41:22Z</time>
      </trkpt>
      <trkpt lat="49.4347" lon="1.67233">
        <ele>156</ele>
        <time>2020-01-07T20:42:11Z</time>
      </trkpt>
      <trkpt lat="49.43497" lon="1.67182">
        <ele>153</ele>
        <time>2020-01-07T20:43:08Z</time>
      </trkpt>
      <trkpt lat="49.43538" lon="1.67121">
        <ele>155</ele>
        <time>2020-01-07T20:44:25Z</time>
      </trkpt>
      <trkpt lat="49.43595" lon="1.67067">
        <ele>159</ele>
        <time>2020-01-07T20:45:54Z</time>
      </trkpt>
      <trkpt lat="49.4367" lon="1.67005">
        <ele>170</ele>
        <time>2020-01-07T20:47:48Z</time>
      </trkpt>
      <trkpt lat="49.43737" lon="1.66932">
        <ele>174</ele>
        <time>2020-01-07T20:49:37Z</time>
      </trkpt>
      <trkpt lat="49.43779" lon="1.66861">
        <ele>183</ele>
        <time>2020-01-07T20:51:00Z</time>
      </trkpt>
      <trkpt lat="49.43804" lon="1.66825">
        <ele>187</ele>
        <time>2020-01-07T20:51:46Z</time>
      </trkpt>
      <trkpt lat="49.43832" lon="1.6679">
        <ele>190</ele>
        <time>2020-01-07T20:52:34Z</time>
      </trkpt>
      <trkpt lat="49.43848" lon="1.66772">
        <ele>191</ele>
        <time>2020-01-07T20:53:01Z</time>
      </trkpt>
      <trkpt lat="49.43845" lon="1.66752">
        <ele>192</ele>
        <time>2020-01-07T20:53:19Z</time>
      </trkpt>
      <trkpt lat="49.43839" lon="1.66714">
        <ele>194</ele>
        <time>2020-01-07T20:53:52Z</time>
      </trkpt>
      <trkpt lat="49.43832" lon="1.66666">
        <ele>195</ele>
        <time>2020-01-07T20:54:35Z</time>
      </trkpt>
      <trkpt lat="49.43831" lon="1.66648">
        <ele>195</ele>
        <time>2020-01-07T20:54:51Z</time>
      </trkpt>
      <trkpt lat="49.43852" lon="1.66636">
        <ele>195</ele>
        <time>2020-01-07T20:55:21Z</time>
      </trkpt>
      <trkpt lat="49.43873" lon="1.66619">
        <ele>196</ele>
        <time>2020-01-07T20:55:52Z</time>
      </trkpt>
      <trkpt lat="49.43887" lon="1.66602">
        <ele>196</ele>
        <time>2020-01-07T20:56:16Z</time>
      </trkpt>
      <trkpt lat="49.43883" lon="1.66575">
        <ele>197</ele>
        <time>2020-01-07T20:56:40Z</time>
      </trkpt>
      <trkpt lat="49.43878" lon="1.66554">
        <ele>196</ele>
        <time>2020-01-07T20:57:00Z</time>
      </trkpt>
      <trkpt lat="49.43894" lon="1.66545">
        <ele>196</ele>
        <time>2020-01-07T20:57:22Z</time>
      </trkpt>
      <trkpt lat="49.43918" lon="1.66532">
        <ele>196</ele>
        <time>2020-01-07T20:57:56Z</time>
      </trkpt>
      <trkpt lat="49.43901" lon="1.66494">
        <ele>196</ele>
        <time>2020-01-07T20:58:36Z</time>
      </trkpt>
      <trkpt lat="49.43878" lon="1.66433">
        <ele>194</ele>
        <time>2020-01-07T20:59:38Z</time>
      </trkpt>
      <trkpt lat="49.43848" lon="1.66394">
        <ele>192</ele>
        <time>2020-01-07T21:00:30Z</time>
      </trkpt>
      <trkpt lat="49.43832" lon="1.66383">
        <ele>191</ele>
        <time>2020-01-07T21:00:53Z</time>
      </trkpt>
      <trkpt lat="49.43808" lon="1.66378">
        <ele>190</ele>
        <time>2020-01-07T21:01:26Z</time>
      </trkpt>
      <trkpt lat="49.43785" lon="1.66378">
        <ele>190</ele>
        <time>2020-01-07T21:01:56Z</time>
      </trkpt>
      <trkpt lat="49.43756" lon="1.66377">
        <ele>189</ele>
        <time>2020-01-07T21:02:35Z</time>
      </trkpt>
      <trkpt lat="49.43724" lon="1.66373">
        <ele>188</ele>
        <time>2020-01-07T21:03:18Z</time>
      </trkpt>
      <trkpt lat="49.43689" lon="1.66366">
        <ele>188</ele>
        <time>2020-01-07T21:04:05Z</time>
      </trkpt>
      <trkpt lat="49.43648" lon="1.66362">
        <ele>187</ele>
        <time>2020-01-07T21:05:00Z</time>
      </trkpt>
      <trkpt lat="49.43605" lon="1.66359">
        <ele>186</ele>
        <time>2020-01-07T21:05:57Z</time>
      </trkpt>
      <trkpt lat="49.43573" lon="1.66356">
        <ele>185</ele>
        <time>2020-01-07T21:06:40Z</time>
      </trkpt>
      <trkpt lat="49.43536" lon="1.66354">
        <ele>182</ele>
        <time>2020-01-07T21:07:29Z</time>
      </trkpt>
      <trkpt lat="49.43503" lon="1.66354">
        <ele>180</ele>
        <time>2020-01-07T21:08:14Z</time>
      </trkpt>
      <trkpt lat="49.43476" lon="1.66363">
        <ele>180</ele>
        <time>2020-01-07T21:08:50Z</time>
      </trkpt>
      <trkpt lat="49.43451" lon="1.66384">
        <ele>181</ele>
        <time>2020-01-07T21:09:28Z</time>
      </trkpt>
      <trkpt lat="49.43439" lon="1.66395">
        <ele>181</ele>
        <time>2020-01-07T21:09:47Z</time>
      </trkpt>
      <trkpt lat="49.43429" lon="1.66383">
        <ele>181</ele>
        <time>2020-01-07T21:10:04Z</time>
      </trkpt>
      <trkpt lat="49.43415" lon="1.66363">
        <ele>181</ele>
        <time>2020-01-07T21:10:29Z</time>
      </trkpt>
      <trkpt lat="49.43395" lon="1.66331">
        <ele>182</ele>
        <time>2020-01-07T21:11:08Z</time>
      </trkpt>
      <trkpt lat="49.43375" lon="1.66289">
        <ele>183</ele>
        <time>2020-01-07T21:11:53Z</time>
      </trkpt>
      <trkpt lat="49.43349" lon="1.66234">
        <ele>184</ele>
        <time>2020-01-07T21:12:52Z</time>
      </trkpt>
      <trkpt lat="49.43321" lon="1.66171">
        <ele>185</ele>
        <time>2020-01-07T21:13:58Z</time>
      </trkpt>
      <trkpt lat="49.43291" lon="1.66103">
        <ele>187</ele>
        <time>2020-01-07T21:15:10Z</time>
      </trkpt>
      <trkpt lat="49.43261" lon="1.66046">
        <ele>188</ele>
        <time>2020-01-07T21:16:13Z</time>
      </trkpt>
      <trkpt lat="49.43228" lon="1.65993">
        <ele>190</ele>
        <time>2020-01-07T21:17:17Z</time>
      </trkpt>
      <trkpt lat="49.43192" lon="1.65938">
        <ele>193</ele>
        <time>2020-01-07T21:18:25Z</time>
      </trkpt>
      <trkpt lat="49.43159" lon="1.659">
        <ele>195</ele>
        <time>2020-01-07T21:19:20Z</time>
      </trkpt>
      <trkpt lat="49.43132" lon="1.65858">
        <ele>196</ele>
        <time>2020-01-07T21:20:11Z</time>
      </trkpt>
      <trkpt lat="49.43113" lon="1.65826">
        <ele>197</ele>
        <time>2020-01-07T21:20:49Z</time>
      </trkpt>
      <trkpt lat="49.43106" lon="1.65808">
        <ele>196</ele>
        <time>2020-01-07T21:21:07Z</time>
      </trkpt>
      <trkpt lat="49.43093" lon="1.65811">
        <ele>197</ele>
        <time>2020-01-07T21:21:24Z</time>
      </trkpt>
      <trkpt lat="49.43086" lon="1.65818">
        <ele>197</ele>
        <time>2020-01-07T21:21:36Z</time>
      </trkpt>
      <trkpt lat="49.43074" lon="1.65827">
        <ele>197</ele>
        <time>2020-01-07T21:21:53Z</time>
      </trkpt>
      <trkpt lat="49.43063" lon="1.65835">
        <ele>197</ele>
        <time>2020-01-07T21:22:10Z</time>
      </trkpt>
      <trkpt lat="49.43048" lon="1.65837">
        <ele>197</ele>
        <time>2020-01-07T21:22:30Z</time>
      </trkpt>
      <trkpt lat="49.43031" lon="1.65845">
        <ele>197</ele>
        <time>2020-01-07T21:22:53Z</time>
      </trkpt>
      <trkpt lat="49.43016" lon="1.6585">
        <ele>197</ele>
        <time>2020-01-07T21:23:14Z</time>
      </trkpt>
      <trkpt lat="49.43001" lon="1.65849">
        <ele>197</ele>
        <time>2020-01-07T21:23:34Z</time>
      </trkpt>
      <trkpt lat="49.4299" lon="1.65845">
        <ele>197</ele>
        <time>2020-01-07T21:23:49Z</time>
      </trkpt>
      <trkpt lat="49.4298" lon="1.65835">
        <ele>197</ele>
        <time>2020-01-07T21:24:05Z</time>
      </trkpt>
      <trkpt lat="49.42968" lon="1.6582">
        <ele>197</ele>
        <time>2020-01-07T21:24:26Z</time>
      </trkpt>
      <trkpt lat="49.42955" lon="1.65799">
        <ele>196</ele>
        <time>2020-01-07T21:24:51Z</time>
      </trkpt>
      <trkpt lat="49.4294" lon="1.65776">
        <ele>196</ele>
        <time>2020-01-07T21:25:19Z</time>
      </trkpt>
      <trkpt lat="49.42924" lon="1.65749">
        <ele>195</ele>
        <time>2020-01-07T21:25:51Z</time>
      </trkpt>
      <trkpt lat="49.42913" lon="1.65728">
        <ele>194</ele>
        <time>2020-01-07T21:26:14Z</time>
      </trkpt>
      <trkpt lat="49.42901" lon="1.65711">
        <ele>194</ele>
        <time>2020-01-07T21:26:36Z</time>
      </trkpt>
      <trkpt lat="49.42892" lon="1.65708">
        <ele>194</ele>
        <time>2020-01-07T21:26:48Z</time>
      </trkpt>
      <trkpt lat="49.42878" lon="1.65708">
        <ele>194</ele>
        <time>2020-01-07T21:27:07Z</time>
      </trkpt>
      <trkpt lat="49.42862" lon="1.6571">
        <ele>193</ele>
        <time>2020-01-07T21:27:28Z</time>
      </trkpt>
      <trkpt lat="49.42846" lon="1.65711">
        <ele>193</ele>
        <time>2020-01-07T21:27:50Z</time>
      </trkpt>
      <trkpt lat="49.42829" lon="1.65711">
        <ele>193</ele>
        <time>2020-01-07T21:28:12Z</time>
      </trkpt>
      <trkpt lat="49.42813" lon="1.65714">
        <ele>193</ele>
        <time>2020-01-07T21:28:34Z</time>
      </trkpt>
      <trkpt lat="49.42794" lon="1.65715">
        <ele>192</ele>
        <time>2020-01-07T21:28:59Z</time>
      </trkpt>
      <trkpt lat="49.42774" lon="1.65715">
        <ele>192</ele>
        <time>2020-01-07T21:29:26Z</time>
      </trkpt>
      <trkpt lat="49.42754" lon="1.65714">
        <ele>192</ele>
        <time>2020-01-07T21:29:53Z</time>
      </trkpt>
      <trkpt lat="49.42735" lon="1.65714">
        <ele>192</ele>
        <time>2020-01-07T21:30:18Z</time>
      </trkpt>
      <trkpt lat="49.42715" lon="1.65713">
        <ele>192</ele>
        <time>2020-01-07T21:30:45Z</time>
      </trkpt>
      <trkpt lat="49.42693" lon="1.65713">
        <ele>192</ele>
        <time>2020-01-07T21:31:14Z</time>
      </trkpt>
      <trkpt lat="49.4267" lon="1.65712">
        <ele>192</ele>
        <time>2020-01-07T21:31:45Z</time>
      </trkpt>
      <trkpt lat="49.42649" lon="1.65711">
        <ele>192</ele>
        <time>2020-01-07T21:32:13Z</time>
      </trkpt>
      <trkpt lat="49.42627" lon="1.65712">
        <ele>192</ele>
        <time>2020-01-07T21:32:42Z</time>
      </trkpt>
      <trkpt lat="49.42605" lon="1.65713">
        <ele>192</ele>
        <time>2020-01-07T21:33:11Z</time>
      </trkpt>
      <trkpt lat="49.42583" lon="1.65715">
        <ele>192</ele>
        <time>2020-01-07T21:33:41Z</time>
      </trkpt>
      <trkpt lat="49.4256" lon="1.65713">
        <ele>193</ele>
        <time>2020-01-07T21:34:12Z</time>
      </trkpt>
      <trkpt lat="49.42539" lon="1.65715">
        <ele>194</ele>
        <time>2020-01-07T21:34:40Z</time>
      </trkpt>
      <trkpt lat="49.42524" lon="1.65716">
        <ele>195</ele>
        <time>2020-01-07T21:35:00Z</time>
      </trkpt>
      <trkpt lat="49.42512" lon="1.65716">
        <ele>195</ele>
        <time>2020-01-07T21:35:16Z</time>
      </trkpt>
      <trkpt lat="49.42473" lon="1.65727">
        <ele>197</ele>
        <time>2020-01-07T21:36:09Z</time>
      </trkpt>
      <trkpt lat="49.42394" lon="1.65762">
        <ele>199</ele>
        <time>2020-01-07T21:37:58Z</time>
      </trkpt>
      <trkpt lat="49.42332" lon="1.65791">
        <ele>197</ele>
        <time>2020-01-07T21:39:25Z</time>
      </trkpt>
      <trkpt lat="49.42277" lon="1.65813">
        <ele>193</ele>
        <time>2020-01-07T21:40:41Z</time>
      </trkpt>
      <trkpt lat="49.42198" lon="1.65846">
        <ele>189</ele>
        <time>2020-01-07T21:42:30Z</time>
      </trkpt>
      <trkpt lat="49.42099" lon="1.65887">
        <ele>185</ele>
        <time>2020-01-07T21:44:47Z</time>
      </trkpt>
      <trkpt lat="49.41991" lon="1.65929">
        <ele>179</ele>
        <time>2020-01-07T21:47:15Z</time>
      </trkpt>
      <trkpt lat="49.41898" lon="1.65973">
        <ele>171</ele>
        <time>2020-01-07T21:49:25Z</time>
      </trkpt>
      <trkpt lat="49.41817" lon="1.66002">
        <ele>164</ele>
        <time>2020-01-07T21:51:16Z</time>
      </trkpt>
      <trkpt lat="49.4177" lon="1.6602">
        <ele>164</ele>
        <time>2020-01-07T21:52:21Z</time>
      </trkpt>
      <trkpt lat="49.4179" lon="1.65978">
        <ele>165</ele>
        <time>2020-01-07T21:53:06Z</time>
      </trkpt>
      <trkpt lat="49.41837" lon="1.65888">
        <ele>171</ele>
        <time>2020-01-07T21:54:46Z</time>
      </trkpt>
      <trkpt lat="49.41895" lon="1.65781">
        <ele>178</ele>
        <time>2020-01-07T21:56:47Z</time>
      </trkpt>
      <trkpt lat="49.41967" lon="1.65643">
        <ele>185</ele>
        <time>2020-01-07T21:59:21Z</time>
      </trkpt>
      <trkpt lat="49.42047" lon="1.65482">
        <ele>190</ele>
        <time>2020-01-07T22:02:17Z</time>
      </trkpt>
      <trkpt lat="49.42135" lon="1.6531">
        <ele>187</ele>
        <time>2020-01-07T22:05:27Z</time>
      </trkpt>
      <trkpt lat="49.42175" lon="1.6523">
        <ele>190</ele>
        <time>2020-01-07T22:06:54Z</time>
      </trkpt>
      <trkpt lat="49.42198" lon="1.65188">
        <ele>191</ele>
        <time>2020-01-07T22:07:42Z</time>
      </trkpt>
      <trkpt lat="49.42234" lon="1.65123">
        <ele>193</ele>
        <time>2020-01-07T22:08:56Z</time>
      </trkpt>
      <trkpt lat="49.42273" lon="1.6505">
        <ele>195</ele>
        <time>2020-01-07T22:10:18Z</time>
      </trkpt>
      <trkpt lat="49.42301" lon="1.64991">
        <ele>197</ele>
        <time>2020-01-07T22:11:21Z</time>
      </trkpt>
      <trkpt lat="49.42327" lon="1.64946">
        <ele>197</ele>
        <time>2020-01-07T22:12:14Z</time>
      </trkpt>
      <trkpt lat="49.42356" lon="1.64885">
        <ele>197</ele>
        <time>2020-01-07T22:13:19Z</time>
      </trkpt>
      <trkpt lat="49.42395" lon="1.64816">
        <ele>196</ele>
        <time>2020-01-07T22:14:39Z</time>
      </trkpt>
      <trkpt lat="49.42406" lon="1.64785">
        <ele>196</ele>
        <time>2020-01-07T22:15:09Z</time>
      </trkpt>
      <trkpt lat="49.42373" lon="1.64743">
        <ele>195</ele>
        <time>2020-01-07T22:16:06Z</time>
      </trkpt>
      <trkpt lat="49.42334" lon="1.64702">
        <ele>194</ele>
        <time>2020-01-07T22:17:09Z</time>
      </trkpt>
      <trkpt lat="49.42291" lon="1.64646">
        <ele>192</ele>
        <time>2020-01-07T22:18:25Z</time>
      </trkpt>
      <trkpt lat="49.42245" lon="1.64583">
        <ele>191</ele>
        <time>2020-01-07T22:19:47Z</time>
      </trkpt>
      <trkpt lat="49.42203" lon="1.64534">
        <ele>189</ele>
        <time>2020-01-07T22:20:57Z</time>
      </trkpt>
      <trkpt lat="49.42134" lon="1.64451">
        <ele>186</ele>
        <time>2020-01-07T22:22:54Z</time>
      </trkpt>
      <trkpt lat="49.42063" lon="1.64359">
        <ele>182</ele>
        <time>2020-01-07T22:24:58Z</time>
      </trkpt>
      <trkpt lat="49.4201" lon="1.64294">
        <ele>181</ele>
        <time>2020-01-07T22:26:28Z</time>
      </trkpt>
      <trkpt lat="49.42024" lon="1.64261">
        <ele>180</ele>
        <time>2020-01-07T22:27:03Z</time>
      </trkpt>
      <trkpt lat="49.42005" lon="1.64183">
        <ele>180</ele>
        <time>2020-01-07T22:28:15Z</time>
      </trkpt>
      <trkpt lat="49.41943" lon="1.64089">
        <ele>185</ele>
        <time>2020-01-07T22:30:11Z</time>
      </trkpt>
      <trkpt lat="49.41865" lon="1.63995">
        <ele>189</ele>
        <time>2020-01-07T22:32:23Z</time>
      </trkpt>
      <trkpt lat="49.41776" lon="1.63913">
        <ele>193</ele>
        <time>2020-01-07T22:34:42Z</time>
      </trkpt>
      <trkpt lat="49.41653" lon="1.6384">
        <ele>195</ele>
        <time>2020-01-07T22:37:38Z</time>
      </trkpt>
      <trkpt lat="49.41541" lon="1.63793">
        <ele>186</ele>
        <time>2020-01-07T22:40:13Z</time>
      </trkpt>
      <trkpt lat="49.41418" lon="1.63728">
        <ele>178</ele>
        <time>2020-01-07T22:43:06Z</time>
      </trkpt>
      <trkpt lat="49.41511" lon="1.63625">
        <ele>185</ele>
        <time>2020-01-07T22:45:39Z</time>
      </trkpt>
      <trkpt lat="49.41589" lon="1.6354">
        <ele>183</ele>
        <time>2020-01-07T22:47:47Z</time>
      </trkpt>
      <trkpt lat="49.41561" lon="1.63424">
        <ele>178</ele>
        <time>2020-01-07T22:49:34Z</time>
      </trkpt>
      <trkpt lat="49.41541" lon="1.63384">
        <ele>176</ele>
        <time>2020-01-07T22:50:18Z</time>
      </trkpt>
      <trkpt lat="49.41574" lon="1.63336">
        <ele>172</ele>
        <time>2020-01-07T22:51:19Z</time>
      </trkpt>
      <trkpt lat="49.41642" lon="1.63379">
        <ele>167</ele>
        <time>2020-01-07T22:52:57Z</time>
      </trkpt>
      <trkpt lat="49.41735" lon="1.63423">
        <ele>157</ele>
        <time>2020-01-07T22:55:07Z</time>
      </trkpt>
      <trkpt lat="49.41742" lon="1.63359">
        <ele>163</ele>
        <time>2020-01-07T22:56:03Z</time>
      </trkpt>
      <trkpt lat="49.4173" lon="1.63287">
        <ele>166</ele>
        <time>2020-01-07T22:57:08Z</time>
      </trkpt>
      <trkpt lat="49.41707" lon="1.63191">
        <ele>169</ele>
        <time>2020-01-07T22:58:36Z</time>
      </trkpt>
      <trkpt lat="49.41664" lon="1.63137">
        <ele>168</ele>
        <time>2020-01-07T22:59:50Z</time>
      </trkpt>
      <trkpt lat="49.41609" lon="1.63071">
        <ele>169</ele>
        <time>2020-01-07T23:01:24Z</time>
      </trkpt>
      <trkpt lat="49.41563" lon="1.62994">
        <ele>170</ele>
        <time>2020-01-07T23:02:54Z</time>
      </trkpt>
      <trkpt lat="49.41531" lon="1.62889">
        <ele>172</ele>
        <time>2020-01-07T23:04:35Z</time>
      </trkpt>
      <trkpt lat="49.41504" lon="1.62792">
        <ele>172</ele>
        <time>2020-01-07T23:06:07Z</time>
      </trkpt>
      <trkpt lat="49.41487" lon="1.62795">
        <ele>171</ele>
        <time>2020-01-07T23:06:29Z</time>
      </trkpt>
      <trkpt lat="49.41446" lon="1.62795">
        <ele>168</ele>
        <time>2020-01-07T23:07:24Z</time>
      </trkpt>
      <trkpt lat="49.41377" lon="1.62789">
        <ele>165</ele>
        <time>2020-01-07T23:08:56Z</time>
      </trkpt>
      <trkpt lat="49.41315" lon="1.62787">
        <ele>162</ele>
        <time>2020-01-07T23:10:19Z</time>
      </trkpt>
      <trkpt lat="49.41259" lon="1.62795">
        <ele>160</ele>
        <time>2020-01-07T23:11:34Z</time>
      </trkpt>
      <trkpt lat="49.41201" lon="1.62807">
        <ele>156</ele>
        <time>2020-01-07T23:12:52Z</time>
      </trkpt>
      <trkpt lat="49.41143" lon="1.62819">
        <ele>150</ele>
        <time>2020-01-07T23:14:10Z</time>
      </trkpt>
      <trkpt lat="49.41095" lon="1.62845">
        <ele>142</ele>
        <time>2020-01-07T23:15:18Z</time>
      </trkpt>
      <trkpt lat="49.4106" lon="1.62898">
        <ele>133</ele>
        <time>2020-01-07T23:16:24Z</time>
      </trkpt>
      <trkpt lat="49.41022" lon="1.62928">
        <ele>124</ele>
        <time>2020-01-07T23:17:21Z</time>
      </trkpt>
      <trkpt lat="49.41008" lon="1.6295">
        <ele>120</ele>
        <time>2020-01-07T23:17:48Z</time>
      </trkpt>
      <trkpt lat="49.4099" lon="1.62983">
        <ele>117</ele>
        <time>2020-01-07T23:18:25Z</time>
      </trkpt>
      <trkpt lat="49.40975" lon="1.62984">
        <ele>117</ele>
        <time>2020-01-07T23:18:45Z</time>
      </trkpt>
      <trkpt lat="49.40957" lon="1.62979">
        <ele>117</ele>
        <time>2020-01-07T23:19:09Z</time>
      </trkpt>
      <trkpt lat="49.40933" lon="1.62974">
        <ele>117</ele>
        <time>2020-01-07T23:19:42Z</time>
      </trkpt>
      <trkpt lat="49.40923" lon="1.6296">
        <ele>117</ele>
        <time>2020-01-07T23:20:00Z</time>
      </trkpt>
      <trkpt lat="49.40915" lon="1.62921">
        <ele>119</ele>
        <time>2020-01-07T23:20:35Z</time>
      </trkpt>
      <trkpt lat="49.409" lon="1.62902">
        <ele>119</ele>
        <time>2020-01-07T23:21:01Z</time>
      </trkpt>
      <trkpt lat="49.4088" lon="1.62909">
        <ele>119</ele>
        <time>2020-01-07T23:21:29Z</time>
      </trkpt>
      <trkpt lat="49.40849" lon="1.62914">
        <ele>118</ele>
        <time>2020-01-07T23:22:10Z</time>
      </trkpt>
      <trkpt lat="49.40823" lon="1.62918">
        <ele>118</ele>
        <time>2020-01-07T23:22:45Z</time>
      </trkpt>
    </trkseg>
  </trk>
</gpx>